Forside
METAR-TAF:

METAR-TAF

Lufthavne :

Port Moresby, Papua Ny Guinea

Breddekreds: 09-26S, længdekreds: 147-13E, højde: 38 m

Aktuelle vejr

Denne rapport blev lavet for 1 time og 58 minutter siden, kl. 01:00 UTC
Vind 12 kt fra sydsydøst
Temperatur 32°C
Fugtighed 52%
Tryk 1010 hPa
Sigt 10 km eller mere
Spredte skyer i en højde af 4000 ft

METAR: AYPY 160100Z 15012KT 9999 SCT040 32/21 Q1010 RMK: BUILD UPS FM NW TO E

Tid: 12:58 (02:58 UTC)

Vejrudsigter

Denne rapport blev lavet for 4 timer og 13 minutter siden, kl. 22:45 UTC
Foreløbig gælder fra 16 på 00 UTC til 16 på 24 UTC
Vind 10 kt fra sydsydøst
Sigt 10 km eller mere
Nogle få skyer i en højde af 2000 ft
Fra 16 på 0400 UTC
Vind 15 kt fra sydsydøst
Sigt 10 km eller mere
Spredte skyer i en højde af 2000 ft

TAF: AYPY 152245Z 1600/1624 16010KT 9999 FEW020 FM160400 16015KT 9999 SCT020

Vejrobservationer og prognoser fra mere end 4000 lufthavne (METAR og TAF).

De gule og røde prikker repræsenterer de meteorologiske stationer.

Flyt musen over at se navnet på stationen.

Så klik over at se vejr observationer og prognoser.

At skifte det kort: Klik på de grønne knapper med et sort kors for at zoome ind; på den grønne knap med en bindestreg for at zoome ud; eller på de grønne pile for tilstødende kort.


METAR-TAF: